Time;durP1;ratioP1;P1;durP2;ratioP2;P2;SDS_P1;SDS_P2;PMS_P1;PMS_P2;Temp;Humidity;BMP_temperature;BMP_pressure;BME280_temperature;BME280_humidity;BME280_pressure;Samples;Min_cycle;Max_cycle;Signal;HPM_P1;HPM_P2
2023/04/25 04:30:57;;;;;;;8.25;3.47;;;9.60;71.60;;;;;;5576409;23;20541;-88
2023/04/25 04:33:23;;;;;;;12.82;3.90;;;9.60;71.10;;;;;;4878765;29;20112;-89
2023/04/25 04:35:52;;;;;;;8.05;4.25;;;9.60;71.40;;;;;;4858428;29;20041;-88
2023/04/25 04:38:18;;;;;;;6.95;3.20;;;9.60;71.40;;;;;;4846762;29;20037;-89
2023/04/25 04:40:44;;;;;;;8.98;4.72;;;9.60;71.50;;;;;;4856298;29;20489;-88
2023/04/25 04:43:10;;;;;;;7.13;4.22;;;9.60;71.60;;;;;;4863055;29;20061;-89
2023/04/25 04:45:37;;;;;;;10.40;4.45;;;9.50;71.30;;;;;;4857788;29;20052;-87
2023/04/25 04:48:05;;;;;;;11.18;4.22;;;9.60;71.50;;;;;;4863099;29;20033;-88
2023/04/25 04:50:32;;;;;;;12.18;3.97;;;9.60;71.20;;;;;;4870870;29;20032;-87
2023/04/25 04:52:58;;;;;;;5.53;3.78;;;9.50;71.90;;;;;;4898804;29;20044;-90
2023/04/25 04:55:23;;;;;;;6.93;4.40;;;9.50;71.60;;;;;;4861779;29;20045;-81
2023/04/25 04:57:50;;;;;;;8.85;4.60;;;9.60;71.80;;;;;;4846132;29;20401;-84
2023/04/25 05:00:15;;;;;;;12.02;4.72;;;9.70;71.60;;;;;;4846177;29;20037;-83
2023/04/25 05:02:41;;;;;;;6.47;3.60;;;9.70;71.00;;;;;;4858817;29;20033;-84
2023/04/25 05:05:07;;;;;;;8.32;3.95;;;9.70;71.00;;;;;;4873473;29;20037;-85
2023/04/25 05:07:33;;;;;;;7.43;3.85;;;9.70;71.10;;;;;;4851950;29;20041;-84
2023/04/25 05:09:59;;;;;;;5.57;3.80;;;9.70;71.30;;;;;;4863154;29;20033;-85
2023/04/25 05:12:25;;;;;;;6.18;4.05;;;9.70;71.60;;;;;;4868413;29;20667;-83
2023/04/25 05:14:50;;;;;;;9.40;4.85;;;9.70;71.80;;;;;;4885348;29;20421;-81
2023/04/25 05:17:16;;;;;;;7.03;3.58;;;9.70;70.90;;;;;;4866186;29;20434;-84
2023/04/25 05:19:42;;;;;;;9.38;4.60;;;9.70;70.90;;;;;;4868641;29;20496;-85
2023/04/25 05:22:07;;;;;;;10.93;4.45;;;9.60;71.20;;;;;;4885089;29;20073;-84
2023/04/25 05:24:33;;;;;;;15.82;5.00;;;9.60;71.80;;;;;;4885179;29;20025;-84
2023/04/25 05:26:59;;;;;;;9.45;5.28;;;9.50;72.00;;;;;;4878298;29;20040;-84
2023/04/25 05:29:24;;;;;;;10.95;4.22;;;9.50;72.10;;;;;;4866413;29;20197;-84
2023/04/25 05:31:50;;;;;;;11.15;4.20;;;9.50;72.00;;;;;;4866154;29;20630;-84
2023/04/25 05:34:16;;;;;;;17.27;8.30;;;9.50;72.20;;;;;;4882035;29;20449;-84
2023/04/25 05:36:42;;;;;;;12.30;6.63;;;9.50;72.00;;;;;;4881433;29;20040;-84
2023/04/25 05:39:08;;;;;;;10.52;6.05;;;9.60;71.90;;;;;;4884956;29;20021;-84
2023/04/25 05:41:34;;;;;;;7.57;5.05;;;9.70;72.20;;;;;;4871852;29;20038;-83
2023/04/25 05:43:59;;;;;;;14.05;5.65;;;9.70;71.80;;;;;;4866246;29;20081;-82
2023/04/25 05:46:25;;;;;;;10.15;6.53;;;9.80;71.30;;;;;;4865883;29;20041;-82
2023/04/25 05:48:51;;;;;;;11.38;5.20;;;9.80;71.00;;;;;;4849336;29;20129;-83
2023/04/25 05:51:18;;;;;;;8.85;5.35;;;9.80;71.00;;;;;;4864757;29;20046;-83
2023/04/25 05:53:44;;;;;;;8.77;4.88;;;9.90;71.10;;;;;;4871902;29;20028;-83
2023/04/25 05:56:09;;;;;;;7.28;4.40;;;9.90;70.90;;;;;;4886058;29;20039;-83
2023/04/25 05:58:35;;;;;;;6.93;4.15;;;9.80;71.00;;;;;;4886204;29;20064;-83
2023/04/25 06:01:02;;;;;;;6.47;4.07;;;9.90;70.80;;;;;;4890803;29;20477;-82
2023/04/25 06:03:28;;;;;;;6.68;3.60;;;9.80;70.90;;;;;;4867294;29;20028;-83
2023/04/25 06:05:53;;;;;;;7.25;4.13;;;9.90;71.40;;;;;;4852508;29;20047;-83
2023/04/25 06:08:19;;;;;;;6.20;3.50;;;9.90;71.00;;;;;;4867211;29;20119;-83
2023/04/25 06:10:45;;;;;;;8.32;3.10;;;10.00;70.90;;;;;;4884357;29;20033;-83
2023/04/25 06:13:11;;;;;;;12.10;4.20;;;10.00;71.00;;;;;;4867341;29;20029;-83
2023/04/25 06:15:36;;;;;;;8.02;4.70;;;10.10;70.90;;;;;;4881213;29;20144;-83
2023/04/25 06:18:02;;;;;;;8.90;3.90;;;10.10;70.70;;;;;;4886120;29;20123;-83
2023/04/25 06:20:28;;;;;;;7.85;4.15;;;10.00;70.80;;;;;;4902558;29;20539;-83
2023/04/25 06:22:53;;;;;;;11.32;4.07;;;10.00;71.10;;;;;;4868678;29;20120;-83
2023/04/25 06:25:20;;;;;;;6.75;3.88;;;10.00;71.30;;;;;;4874342;29;20396;-83
2023/04/25 06:27:45;;;;;;;10.40;4.15;;;9.90;71.90;;;;;;4867165;29;20056;-83
2023/04/25 06:30:12;;;;;;;9.57;3.90;;;9.90;72.00;;;;;;4867152;29;20036;-83
2023/04/25 06:32:38;;;;;;;8.52;4.50;;;10.00;72.10;;;;;;4873925;29;20033;-83
2023/04/25 06:35:05;;;;;;;11.05;4.28;;;10.00;72.00;;;;;;4867169;29;20464;-83
2023/04/25 06:37:30;;;;;;;6.32;4.30;;;10.10;72.10;;;;;;4866934;29;20036;-83
2023/04/25 06:39:56;;;;;;;9.10;4.20;;;10.10;71.90;;;;;;4849182;29;20109;-83
2023/04/25 06:42:22;;;;;;;8.98;4.32;;;10.10;72.10;;;;;;4865337;29;20042;-83
2023/04/25 06:44:47;;;;;;;6.97;3.65;;;10.10;72.00;;;;;;4848174;29;20057;-83
2023/04/25 06:47:13;;;;;;;9.82;3.55;;;10.10;72.10;;;;;;4863906;29;20132;-83
2023/04/25 06:49:39;;;;;;;7.20;4.30;;;10.20;71.90;;;;;;4864953;29;20058;-83
2023/04/25 06:52:05;;;;;;;9.35;4.22;;;10.40;72.10;;;;;;4862565;29;20462;-83
2023/04/25 06:54:30;;;;;;;9.60;4.82;;;10.50;72.10;;;;;;4863499;29;20094;-83
2023/04/25 06:56:56;;;;;;;8.30;4.72;;;10.70;71.40;;;;;;4864741;29;20500;-83
2023/04/25 06:59:23;;;;;;;8.23;4.15;;;10.80;71.80;;;;;;4862305;29;20044;-83
2023/04/25 07:01:48;;;;;;;8.35;4.53;;;10.80;71.00;;;;;;4866935;29;20654;-83
2023/04/25 07:04:14;;;;;;;8.30;4.47;;;11.00;71.30;;;;;;4866237;29;20028;-82
2023/04/25 07:06:42;;;;;;;11.07;4.35;;;11.00;70.60;;;;;;4863940;29;20048;-83
2023/04/25 07:09:09;;;;;;;5.57;3.42;;;11.10;71.10;;;;;;4865716;29;20063;-83
2023/04/25 07:11:35;;;;;;;7.07;3.60;;;11.20;70.70;;;;;;4877800;29;20471;-83
2023/04/25 07:14:01;;;;;;;7.93;3.80;;;11.20;71.10;;;;;;4864769;29;20223;-83
2023/04/25 07:16:27;;;;;;;11.43;4.90;;;11.40;70.20;;;;;;4853363;29;20042;-83
2023/04/25 07:18:53;;;;;;;10.15;4.28;;;11.50;70.00;;;;;;4862983;29;20396;-83
2023/04/25 07:21:18;;;;;;;7.88;4.15;;;11.60;71.20;;;;;;4864845;29;20030;-83
2023/04/25 07:23:44;;;;;;;10.80;4.30;;;11.80;70.70;;;;;;4879924;29;20100;-83
2023/04/25 07:26:10;;;;;;;7.05;4.07;;;12.00;69.50;;;;;;4857468;29;20061;-83
2023/04/25 07:28:36;;;;;;;7.75;3.97;;;12.30;69.40;;;;;;4877694;29;20029;-83
2023/04/25 07:31:02;;;;;;;8.65;4.25;;;12.50;68.50;;;;;;4861242;29;20049;-82
2023/04/25 07:33:28;;;;;;;9.95;4.32;;;13.10;68.00;;;;;;4856842;29;20042;-82
2023/04/25 07:35:54;;;;;;;6.32;4.10;;;13.50;66.60;;;;;;4858510;29;20052;-83
2023/04/25 07:38:20;;;;;;;10.85;4.13;;;13.70;65.90;;;;;;4879094;29;20028;-82
2023/04/25 07:40:47;;;;;;;10.57;5.22;;;13.80;66.20;;;;;;4881522;29;20025;-85
2023/04/25 07:43:16;;;;;;;8.30;4.40;;;13.80;66.10;;;;;;4863816;29;20938;-82
2023/04/25 07:45:42;;;;;;;8.95;4.60;;;14.00;65.40;;;;;;4881119;29;20024;-81
2023/04/25 07:48:08;;;;;;;7.22;4.30;;;14.70;63.70;;;;;;4881432;29;20888;-81
2023/04/25 07:50:33;;;;;;;8.95;4.05;;;15.20;62.60;;;;;;4879879;29;20074;-81
2023/04/25 07:52:59;;;;;;;7.10;4.70;;;15.40;61.90;;;;;;4881299;29;20021;-81
2023/04/25 07:55:25;;;;;;;9.32;4.43;;;15.80;60.90;;;;;;4869428;29;20059;-82
2023/04/25 07:57:50;;;;;;;6.97;4.38;;;16.10;59.70;;;;;;4863537;29;20507;-79
2023/04/25 08:00:16;;;;;;;6.47;3.78;;;16.20;59.90;;;;;;4881700;29;20022;-81
2023/04/25 08:02:42;;;;;;;6.95;3.70;;;17.10;57.90;;;;;;4878595;29;20049;-81
2023/04/25 08:05:11;;;;;;;3.97;3.08;;;17.60;56.50;;;;;;4873088;29;20473;-81
2023/04/25 08:07:38;;;;;;;5.22;3.38;;;19.00;53.40;;;;;;4871710;29;20032;-81
2023/04/25 08:10:05;;;;;;;7.22;3.92;;;19.30;52.30;;;;;;4872167;29;20033;-81
2023/04/25 08:12:31;;;;;;;8.77;3.53;;;18.50;53.90;;;;;;4874450;29;20029;-77
2023/04/25 08:14:56;;;;;;;5.82;3.47;;;18.10;53.70;;;;;;4858912;29;20045;-81
2023/04/25 08:17:22;;;;;;;5.60;3.88;;;17.40;54.70;;;;;;4873843;29;20108;-81
2023/04/25 08:19:48;;;;;;;5.97;3.75;;;17.30;55.90;;;;;;4860429;29;20054;-82
2023/04/25 08:22:14;;;;;;;7.63;3.60;;;17.60;55.30;;;;;;4864278;29;20451;-82
2023/04/25 08:24:40;;;;;;;4.60;2.85;;;18.00;54.50;;;;;;4879479;29;20077;-81
2023/04/25 08:27:07;;;;;;;4.95;3.30;;;18.10;53.90;;;;;;4880933;29;20025;-81
2023/04/25 08:29:33;;;;;;;5.30;3.35;;;18.10;53.70;;;;;;4863814;29;20032;-81
2023/04/25 08:31:59;;;;;;;6.28;3.83;;;18.40;53.70;;;;;;4879905;29;20461;-81
2023/04/25 08:34:25;;;;;;;4.80;3.05;;;18.00;52.90;;;;;;4880220;29;20128;-81
2023/04/25 08:36:51;;;;;;;8.55;3.40;;;18.20;53.00;;;;;;4862282;29;20552;-82
2023/04/25 08:39:17;;;;;;;6.90;3.92;;;17.70;54.30;;;;;;4879848;29;20071;-81
2023/04/25 08:41:44;;;;;;;6.10;3.53;;;17.30;55.50;;;;;;4879923;29;20045;-81
2023/04/25 08:44:13;;;;;;;5.70;3.15;;;16.90;56.30;;;;;;4871649;29;20021;-82
2023/04/25 08:46:42;;;;;;;7.10;3.55;;;17.00;55.70;;;;;;4873852;29;20033;-81
2023/04/25 08:49:11;;;;;;;5.82;3.47;;;16.80;56.80;;;;;;4876858;29;20050;-81
2023/04/25 08:51:46;;;;;;;6.28;3.78;;;16.60;56.30;;;;;;4876104;29;20717;-81
2023/04/25 08:54:14;;;;;;;7.95;3.75;;;16.60;56.40;;;;;;4875848;29;20036;-81
2023/04/25 08:56:49;;;;;;;6.88;3.20;;;16.40;57.00;;;;;;4859795;29;20111;-81
2023/04/25 08:59:14;;;;;;;8.38;3.95;;;16.30;57.90;;;;;;4873825;29;20520;-81
2023/04/25 09:01:40;;;;;;;5.47;2.97;;;16.30;57.90;;;;;;4874595;29;20433;-81
2023/04/25 09:04:06;;;;;;;8.18;3.10;;;16.00;57.70;;;;;;4860198;29;20443;-81
2023/04/25 09:06:34;;;;;;;4.30;2.78;;;15.70;58.00;;;;;;4858402;29;20037;-82
2023/04/25 09:09:07;;;;;;;10.23;3.75;;;15.40;58.30;;;;;;4874744;29;20130;-81
2023/04/25 09:11:35;;;;;;;6.82;3.95;;;14.90;58.50;;;;;;4859547;29;20033;-81
2023/04/25 09:14:24;;;;;;;5.28;3.33;;;15.30;59.30;;;;;;4859546;29;20065;-81
2023/04/25 09:16:56;;;;;;;6.10;4.05;;;15.20;57.90;;;;;;4879007;29;20125;-82
2023/04/25 09:19:27;;;;;;;5.22;3.20;;;15.10;58.50;;;;;;4875217;29;20058;-81
2023/04/25 09:22:00;;;;;;;5.47;3.58;;;14.80;58.90;;;;;;4874118;29;20036;-81
2023/04/25 09:24:37;;;;;;;6.28;3.38;;;14.90;60.00;;;;;;4874597;29;20400;-82
2023/04/25 09:27:11;;;;;;;9.00;4.30;;;14.90;60.50;;;;;;4877012;29;20033;-81
2023/04/25 09:29:41;;;;;;;5.95;3.70;;;14.90;60.80;;;;;;4858064;29;20025;-82
2023/04/25 09:32:24;;;;;;;6.85;3.72;;;15.10;60.60;;;;;;4874065;29;20053;-82
2023/04/25 09:34:52;;;;;;;6.43;3.10;;;16.70;58.10;;;;;;4876085;29;20486;-81
2023/04/25 09:37:20;;;;;;;5.40;3.28;;;17.40;56.00;;;;;;4874578;29;20037;-81
2023/04/25 09:39:47;;;;;;;7.10;2.85;;;17.30;51.70;;;;;;4874481;29;20388;-81
2023/04/25 09:42:15;;;;;;;4.15;2.72;;;16.70;53.80;;;;;;4875880;29;20031;-82
2023/04/25 09:44:43;;;;;;;5.70;3.58;;;16.60;54.80;;;;;;4874219;29;20018;-81
2023/04/25 09:47:21;;;;;;;4.30;3.00;;;16.20;55.30;;;;;;4875597;29;20040;-81
2023/04/25 09:49:46;;;;;;;6.53;3.20;;;15.80;55.50;;;;;;4875660;29;20436;-82
2023/04/25 09:52:20;;;;;;;8.23;3.47;;;15.40;56.70;;;;;;4879385;29;20107;-81
2023/04/25 09:54:47;;;;;;;8.32;3.80;;;15.40;57.50;;;;;;4857717;29;20051;-81
2023/04/25 09:57:22;;;;;;;6.55;3.58;;;15.50;58.20;;;;;;4858847;29;20067;-82
2023/04/25 09:59:53;;;;;;;5.03;3.10;;;15.40;58.20;;;;;;4875705;29;20032;-82
2023/04/25 10:02:21;;;;;;;8.73;3.20;;;15.40;58.30;;;;;;4859373;29;20069;-82
2023/04/25 10:04:54;;;;;;;7.00;3.47;;;15.50;58.40;;;;;;4883269;29;20089;-82
2023/04/25 10:07:25;;;;;;;8.95;3.55;;;15.40;58.60;;;;;;4874091;29;20493;-81
2023/04/25 10:09:59;;;;;;;4.57;3.28;;;15.30;57.20;;;;;;4877502;29;20030;-81
2023/04/25 10:12:26;;;;;;;5.50;3.20;;;15.30;56.90;;;;;;4874404;29;20041;-82
2023/04/25 10:14:54;;;;;;;4.28;2.95;;;15.50;57.60;;;;;;4880924;29;20056;-81
2023/04/25 10:17:20;;;;;;;4.95;3.30;;;15.50;56.10;;;;;;4876207;29;20140;-82
2023/04/25 10:19:47;;;;;;;5.70;3.10;;;15.70;57.70;;;;;;4860439;29;20078;-81
2023/04/25 10:22:17;;;;;;;4.53;3.03;;;15.70;56.60;;;;;;4875314;29;20518;-80
2023/04/25 10:24:44;;;;;;;5.17;2.77;;;15.60;54.60;;;;;;4874333;29;20017;-80
2023/04/25 10:27:10;;;;;;;5.15;2.53;;;15.70;53.40;;;;;;4856943;29;20266;-80
2023/04/25 10:29:36;;;;;;;5.45;2.70;;;15.70;53.50;;;;;;4873356;29;20037;-80
2023/04/25 10:32:02;;;;;;;3.58;2.13;;;15.60;55.10;;;;;;4883688;29;20056;-80
2023/04/25 10:34:42;;;;;;;3.35;2.35;;;15.70;55.60;;;;;;4895134;29;20068;-81
2023/04/25 10:37:11;;;;;;;4.22;2.75;;;15.80;55.50;;;;;;4891976;29;20098;-80
2023/04/25 10:39:42;;;;;;;4.65;3.13;;;15.70;54.90;;;;;;4892240;29;20033;-80
2023/04/25 10:42:08;;;;;;;;;;;15.40;54.80;;;;;;4898272;29;20040;-80
2023/04/25 10:44:34;;;;;;;6.78;3.80;;;15.30;56.80;;;;;;4900227;29;19908;-80
2023/04/25 10:47:02;;;;;;;7.45;3.88;;;15.40;56.50;;;;;;4899116;29;20028;-80
2023/04/25 10:49:33;;;;;;;4.65;3.05;;;15.30;54.30;;;;;;4901201;29;20060;-80
2023/04/25 10:52:17;;;;;;;7.78;2.90;;;15.40;54.90;;;;;;4898627;29;20033;-80
2023/04/25 10:54:51;;;;;;;4.75;2.90;;;15.60;55.60;;;;;;4896879;29;20104;-80
2023/04/25 10:57:36;;;;;;;4.35;3.15;;;15.80;54.20;;;;;;4900772;29;20068;-80
2023/04/25 11:00:10;;;;;;;3.65;2.60;;;15.70;54.50;;;;;;4897456;29;20055;-81
2023/04/25 11:02:47;;;;;;;5.53;3.50;;;15.80;54.10;;;;;;4898576;29;20037;-80
2023/04/25 11:05:32;;;;;;;4.50;2.90;;;15.80;52.90;;;;;;4899902;29;20027;-81
2023/04/25 11:07:59;;;;;;;4.70;3.00;;;15.70;53.00;;;;;;4894086;29;20065;-80
2023/04/25 11:10:30;;;;;;;4.93;3.05;;;15.80;54.00;;;;;;4894944;29;20029;-81
2023/04/25 11:12:57;;;;;;;5.97;3.28;;;16.00;54.30;;;;;;4899421;29;20472;-81
2023/04/25 11:15:23;;;;;;;6.35;3.33;;;16.00;54.20;;;;;;4899814;29;20032;-78
2023/04/25 11:17:51;;;;;;;5.88;2.97;;;16.00;54.50;;;;;;4896972;29;20029;-77
2023/04/25 11:20:17;;;;;;;4.82;3.15;;;16.20;54.20;;;;;;4901230;29;20029;-77
2023/04/25 11:22:44;;;;;;;4.47;2.63;;;16.00;53.40;;;;;;4894904;29;20040;-76
2023/04/25 11:25:14;;;;;;;7.68;3.47;;;16.20;53.80;;;;;;4882379;29;20484;-78
2023/04/25 11:28:01;;;;;;;6.32;3.03;;;16.30;55.20;;;;;;4883528;29;20033;-78
2023/04/25 11:30:27;;;;;;;7.25;2.88;;;16.20;54.80;;;;;;4895456;29;20036;-78
2023/04/25 11:32:53;;;;;;;4.10;2.70;;;16.30;54.70;;;;;;4870790;29;20106;-79
2023/04/25 11:35:22;;;;;;;5.13;3.10;;;16.50;54.70;;;;;;4881200;29;20032;-79
2023/04/25 11:37:49;;;;;;;5.75;2.45;;;16.50;53.90;;;;;;4866954;29;20030;-78
2023/04/25 11:40:15;;;;;;;4.90;2.80;;;16.40;52.20;;;;;;4861868;29;20470;-78
2023/04/25 11:42:46;;;;;;;4.18;2.47;;;16.30;53.00;;;;;;4863125;29;20037;-79
2023/04/25 11:45:12;;;;;;;6.78;2.78;;;16.60;53.50;;;;;;4863695;29;20045;-78
2023/04/25 11:47:38;;;;;;;4.85;2.78;;;16.90;53.30;;;;;;4846413;29;20033;-77
2023/04/25 11:50:05;;;;;;;5.97;3.05;;;16.70;50.40;;;;;;4864338;29;20033;-78
2023/04/25 11:52:41;;;;;;;7.72;3.50;;;16.50;51.90;;;;;;4866373;29;20061;-78
2023/04/25 11:55:26;;;;;;;5.70;2.80;;;16.40;52.00;;;;;;4867138;29;20057;-78
2023/04/25 11:57:51;;;;;;;3.58;2.28;;;16.30;50.80;;;;;;4863020;29;20021;-78
2023/04/25 12:00:20;;;;;;;4.82;2.63;;;16.20;52.20;;;;;;4863228;29;20040;-79
2023/04/25 12:02:57;;;;;;;4.38;2.25;;;16.20;53.10;;;;;;4875062;29;20021;-78
2023/04/25 12:05:33;;;;;;;5.57;2.97;;;16.30;53.10;;;;;;4878022;29;20029;-77
2023/04/25 12:08:10;;;;;;;6.30;2.60;;;16.30;53.00;;;;;;4874623;29;20108;-78
2023/04/25 12:10:39;;;;;;;5.60;3.00;;;16.20;51.80;;;;;;4877073;29;20477;-77
2023/04/25 12:13:20;;;;;;;4.18;2.58;;;16.10;52.00;;;;;;4878441;29;20077;-77
2023/04/25 12:15:46;;;;;;;2.75;2.20;;;16.00;52.50;;;;;;4863488;29;20127;-77
2023/04/25 12:18:12;;;;;;;3.42;2.42;;;16.10;52.10;;;;;;4880275;29;20021;-78
2023/04/25 12:20:37;;;;;;;4.32;2.47;;;16.30;53.10;;;;;;4888784;29;20028;-78
2023/04/25 12:23:07;;;;;;;4.90;2.28;;;16.60;52.30;;;;;;4880593;29;20032;-77
2023/04/25 12:25:40;;;;;;;2.97;2.08;;;16.30;51.50;;;;;;4878445;29;20017;-77
2023/04/25 12:28:15;;;;;;;4.25;2.58;;;16.60;51.40;;;;;;4878477;29;20029;-78
2023/04/25 12:31:06;;;;;;;6.32;2.90;;;16.80;51.40;;;;;;4880490;29;20053;-77
2023/04/25 12:33:36;;;;;;;3.15;2.00;;;17.00;51.00;;;;;;4856417;29;20056;-77
2023/04/25 12:36:08;;;;;;;4.35;2.65;;;17.10;50.20;;;;;;4880886;29;20048;-77
2023/04/25 12:38:38;;;;;;;4.45;2.47;;;17.10;50.30;;;;;;4875656;29;20029;-77
2023/04/25 12:41:04;;;;;;;4.20;2.28;;;17.10;49.60;;;;;;4880794;29;20025;-77
2023/04/25 12:43:30;;;;;;;3.25;2.13;;;17.00;50.60;;;;;;4879611;29;20052;-78
2023/04/25 12:45:56;;;;;;;3.88;1.80;;;16.80;48.90;;;;;;4880574;29;20053;-77
2023/04/25 12:48:23;;;;;;;6.93;2.58;;;16.60;48.80;;;;;;4862938;29;20105;-78
2023/04/25 12:50:50;;;;;;;5.00;3.03;;;16.50;50.00;;;;;;4880700;29;20037;-77
2023/04/25 12:53:20;;;;;;;4.05;2.30;;;16.30;48.90;;;;;;4863733;29;20047;-77
2023/04/25 12:55:46;;;;;;;;;;;16.40;50.70;;;;;;4879411;29;20033;-77
2023/04/25 12:58:15;;;;;;;5.53;2.28;;;16.60;50.10;;;;;;4877880;29;19907;-77
2023/04/25 13:00:41;;;;;;;3.00;2.10;;;16.70;49.30;;;;;;4877799;29;20025;-77
2023/04/25 13:03:08;;;;;;;5.10;2.40;;;16.80;48.60;;;;;;4879852;29;20052;-77
2023/04/25 13:05:33;;;;;;;2.85;1.80;;;16.80;48.90;;;;;;4859776;29;20045;-77
2023/04/25 13:07:59;;;;;;;5.00;1.83;;;17.10;50.10;;;;;;4879890;29;20673;-77
2023/04/25 13:10:24;;;;;;;3.97;2.78;;;17.20;50.00;;;;;;4879527;29;20512;-77
2023/04/25 13:12:50;;;;;;;3.67;2.25;;;17.30;50.40;;;;;;4864151;29;20021;-77
2023/04/25 13:15:16;;;;;;;6.10;3.00;;;17.30;50.10;;;;;;4878510;29;20037;-77
2023/04/25 13:17:42;;;;;;;7.80;2.40;;;17.40;49.60;;;;;;4880322;29;20029;-77
2023/04/25 13:20:09;;;;;;;7.20;2.90;;;17.20;47.00;;;;;;4864170;29;20025;-77
2023/04/25 13:22:36;;;;;;;7.65;3.40;;;16.80;48.40;;;;;;4878973;29;20029;-77
2023/04/25 13:25:03;;;;;;;6.45;2.38;;;16.80;48.80;;;;;;4880905;29;20025;-77
2023/04/25 13:27:28;;;;;;;4.28;2.60;;;16.80;50.00;;;;;;4880787;29;20029;-77
2023/04/25 13:29:54;;;;;;;4.97;2.75;;;16.60;48.60;;;;;;4879415;29;20405;-77
2023/04/25 13:32:20;;;;;;;5.53;2.45;;;16.50;49.00;;;;;;4879860;29;20059;-77
2023/04/25 13:34:45;;;;;;;4.25;2.92;;;16.50;49.10;;;;;;4883639;29;20112;-77
2023/04/25 13:37:11;;;;;;;6.72;2.90;;;16.60;48.20;;;;;;4881037;29;20026;-77
2023/04/25 13:39:37;;;;;;;5.93;2.92;;;16.70;47.90;;;;;;4883708;29;20040;-77
2023/04/25 13:42:02;;;;;;;7.82;3.28;;;16.80;46.70;;;;;;4884388;29;20097;-77
2023/04/25 13:44:28;;;;;;;7.25;2.78;;;16.80;47.00;;;;;;4882205;29;20033;-78
2023/04/25 13:46:54;;;;;;;4.40;2.58;;;16.90;47.50;;;;;;4883763;29;20033;-77
2023/04/25 13:49:19;;;;;;;4.68;2.90;;;17.20;49.00;;;;;;4884189;29;20037;-77
2023/04/25 13:51:45;;;;;;;4.22;2.50;;;17.30;46.60;;;;;;4886414;29;20049;-77
2023/04/25 13:54:11;;;;;;;6.13;3.58;;;17.40;48.50;;;;;;4866232;29;20041;-77
2023/04/25 13:56:37;;;;;;;3.95;2.80;;;17.50;47.90;;;;;;4875460;29;20536;-77
2023/04/25 13:59:02;;;;;;;4.82;3.00;;;17.50;47.20;;;;;;4873494;29;20021;-77
2023/04/25 14:01:30;;;;;;;6.18;2.95;;;17.70;46.20;;;;;;4874865;29;20040;-77
2023/04/25 14:03:56;;;;;;;6.75;2.92;;;17.70;46.00;;;;;;4875370;29;20165;-77
2023/04/25 14:06:23;;;;;;;4.45;3.03;;;17.50;45.70;;;;;;4873645;29;20060;-78
2023/04/25 14:08:50;;;;;;;5.55;2.85;;;17.40;46.30;;;;;;4875436;29;20052;-78
2023/04/25 14:11:17;;;;;;;5.50;3.00;;;17.50;46.80;;;;;;4879815;29;20029;-78
2023/04/25 14:13:44;;;;;;;6.25;3.63;;;17.60;47.70;;;;;;4879337;29;20472;-77
2023/04/25 14:16:09;;;;;;;6.63;3.33;;;17.30;46.90;;;;;;4874565;29;20029;-77
2023/04/25 14:18:35;;;;;;;6.47;3.20;;;17.40;47.70;;;;;;4874953;29;20054;-77
2023/04/25 14:21:01;;;;;;;4.32;3.03;;;17.50;47.50;;;;;;4875529;29;20037;-77
2023/04/25 14:23:26;;;;;;;7.45;3.50;;;17.70;47.70;;;;;;4873173;29;20077;-77
2023/04/25 14:25:52;;;;;;;5.00;3.53;;;17.60;45.00;;;;;;4874150;29;20064;-77
2023/04/25 14:28:18;;;;;;;4.82;2.97;;;17.50;45.70;;;;;;4874535;29;20470;-77
2023/04/25 14:30:43;;;;;;;6.80;3.00;;;17.50;47.20;;;;;;4873616;29;20560;-77
2023/04/25 14:33:09;;;;;;;7.30;4.00;;;17.60;47.60;;;;;;4876290;29;20025;-77
2023/04/25 14:35:35;;;;;;;6.80;3.35;;;17.50;46.40;;;;;;4874517;29;20041;-77
2023/04/25 14:38:01;;;;;;;7.05;3.35;;;17.40;46.30;;;;;;4856419;29;20116;-77
2023/04/25 14:40:26;;;;;;;6.57;3.40;;;17.30;46.30;;;;;;4873530;29;20061;-77
2023/04/25 14:42:52;;;;;;;7.65;2.90;;;17.30;46.50;;;;;;4856475;29;20081;-77
2023/04/25 14:45:18;;;;;;;5.75;3.50;;;17.30;47.40;;;;;;4873897;29;20030;-77
2023/04/25 14:47:43;;;;;;;6.65;3.17;;;17.40;47.10;;;;;;4872100;29;20063;-77
2023/04/25 14:50:10;;;;;;;4.97;3.60;;;17.40;47.10;;;;;;4873589;29;20551;-77
2023/04/25 14:52:36;;;;;;;6.10;3.13;;;17.20;45.70;;;;;;4873991;29;20038;-77
2023/04/25 14:55:04;;;;;;;5.65;3.17;;;17.00;46.10;;;;;;4872910;29;20120;-77
2023/04/25 14:57:31;;;;;;;6.57;3.35;;;16.90;46.90;;;;;;4876427;29;20104;-77
2023/04/25 14:59:57;;;;;;;6.47;3.60;;;17.00;48.50;;;;;;4872638;29;20053;-77
2023/04/25 15:02:24;;;;;;;4.30;3.20;;;17.00;47.50;;;;;;4857021;29;20052;-77
2023/04/25 15:04:49;;;;;;;5.60;3.60;;;17.00;46.20;;;;;;4872924;29;20029;-77
2023/04/25 15:07:15;;;;;;;6.30;3.00;;;16.90;45.50;;;;;;4857144;29;20481;-77
2023/04/25 15:09:40;;;;;;;5.20;3.10;;;16.90;46.90;;;;;;4874514;29;20029;-77
2023/04/25 15:12:06;;;;;;;7.53;3.78;;;16.90;47.00;;;;;;4872728;29;20467;-76
2023/04/25 15:14:33;;;;;;;5.00;3.25;;;16.80;47.40;;;;;;4879720;29;20088;-76
2023/04/25 15:17:00;;;;;;;6.55;2.90;;;16.80;47.00;;;;;;4874491;29;20033;-77
2023/04/25 15:19:25;;;;;;;6.03;3.80;;;17.00;48.10;;;;;;4876581;29;20033;-77
2023/04/25 15:21:51;;;;;;;6.68;3.22;;;17.20;48.30;;;;;;4879511;29;20029;-77
2023/04/25 15:24:17;;;;;;;6.65;3.03;;;17.30;48.40;;;;;;4881375;29;20122;-77
2023/04/25 15:26:43;;;;;;;5.82;3.17;;;17.30;46.70;;;;;;4863216;29;20037;-78
2023/04/25 15:29:09;;;;;;;6.15;3.97;;;17.30;48.30;;;;;;4847722;29;20058;-77
2023/04/25 15:31:35;;;;;;;5.13;3.00;;;17.30;47.60;;;;;;4874997;29;20056;-77
2023/04/25 15:34:01;;;;;;;8.07;3.70;;;17.30;48.00;;;;;;4876106;29;20030;-77
2023/04/25 15:36:26;;;;;;;6.05;3.67;;;17.20;47.40;;;;;;4872208;29;20033;-77
2023/04/25 15:38:52;;;;;;;5.95;3.35;;;17.10;47.80;;;;;;4873003;29;20032;-77
2023/04/25 15:41:18;;;;;;;8.18;3.92;;;17.10;48.00;;;;;;4873828;29;20032;-77
2023/04/25 15:43:43;;;;;;;9.05;4.15;;;16.90;47.40;;;;;;4863522;29;20120;-77
2023/04/25 15:46:09;;;;;;;6.25;4.20;;;16.90;48.20;;;;;;4880901;29;20053;-76
2023/04/25 15:48:35;;;;;;;6.50;3.72;;;16.90;48.50;;;;;;4882606;29;20033;-76
2023/04/25 15:51:00;;;;;;;5.28;3.60;;;16.80;48.30;;;;;;4860697;29;20061;-78
2023/04/25 15:53:26;;;;;;;4.80;3.08;;;16.80;49.20;;;;;;4846980;29;20053;-77
2023/04/25 15:55:52;;;;;;;6.15;3.38;;;16.70;47.00;;;;;;4876376;29;20401;-77
2023/04/25 15:58:17;;;;;;;6.00;3.10;;;16.60;48.10;;;;;;4863558;29;20054;-77
2023/04/25 16:00:44;;;;;;;6.05;3.42;;;16.60;48.40;;;;;;4881443;29;20467;-77
2023/04/25 16:03:10;;;;;;;7.07;3.55;;;16.60;48.30;;;;;;4877113;29;20096;-77
2023/04/25 16:05:36;;;;;;;5.35;3.22;;;16.60;48.80;;;;;;4878756;29;20025;-77
2023/04/25 16:08:03;;;;;;;4.35;2.42;;;16.70;48.90;;;;;;4884720;29;20021;-77
2023/04/25 16:10:29;;;;;;;5.20;2.88;;;16.60;49.20;;;;;;4878337;29;20032;-76
2023/04/25 16:12:54;;;;;;;6.10;2.58;;;16.60;49.40;;;;;;4881752;29;20033;-77
2023/04/25 16:15:20;;;;;;;6.03;3.25;;;16.50;48.10;;;;;;4861359;29;20026;-76
2023/04/25 16:17:46;;;;;;;6.82;3.45;;;16.30;48.40;;;;;;4872932;29;20401;-77
2023/04/25 16:20:12;;;;;;;8.50;3.20;;;16.30;48.70;;;;;;4872451;29;20030;-76
2023/04/25 16:22:42;;;;;;;5.95;3.22;;;16.30;49.30;;;;;;4872490;29;20029;-74
2023/04/25 16:25:09;;;;;;;3.85;2.60;;;16.30;49.00;;;;;;4855105;29;20033;-74
2023/04/25 16:27:37;;;;;;;4.80;2.05;;;16.20;48.90;;;;;;4856870;29;20041;-77
2023/04/25 16:30:05;;;;;;;5.05;2.38;;;16.20;49.80;;;;;;4854474;29;20056;-76
2023/04/25 16:32:31;;;;;;;5.47;2.78;;;16.20;50.10;;;;;;4885003;29;20893;-77
2023/04/25 16:34:56;;;;;;;6.22;2.70;;;16.20;49.90;;;;;;4891788;29;20103;-77
2023/04/25 16:37:23;;;;;;;6.38;2.25;;;16.30;50.40;;;;;;4889307;29;20543;-77
2023/04/25 16:39:49;;;;;;;5.32;2.70;;;16.30;50.30;;;;;;4891060;29;20033;-79
2023/04/25 16:42:15;;;;;;;5.88;2.67;;;16.40;51.20;;;;;;4889895;29;20111;-76
2023/04/25 16:44:40;;;;;;;4.28;2.30;;;16.40;50.00;;;;;;4891732;29;20059;-79
2023/04/25 16:47:06;;;;;;;6.10;2.65;;;16.50;50.90;;;;;;4888884;29;20442;-77
2023/04/25 16:49:32;;;;;;;4.05;2.17;;;16.40;50.20;;;;;;4891636;29;20092;-78
2023/04/25 16:51:57;;;;;;;4.82;2.88;;;16.40;50.30;;;;;;4890976;29;20028;-75
2023/04/25 16:54:24;;;;;;;3.92;2.60;;;16.40;50.50;;;;;;4889472;29;20575;-82
2023/04/25 16:56:51;;;;;;;4.93;2.38;;;16.40;49.90;;;;;;4890667;29;20029;-77
2023/04/25 16:59:17;;;;;;;4.68;2.45;;;16.40;50.30;;;;;;4888627;29;20069;-74
2023/04/25 17:01:42;;;;;;;3.47;2.10;;;16.40;50.70;;;;;;4890376;29;20041;-75
2023/04/25 17:04:08;;;;;;;4.70;2.83;;;16.50;49.80;;;;;;4896590;29;20503;-74
2023/04/25 17:06:34;;;;;;;4.93;2.15;;;16.50;50.60;;;;;;4897614;29;20028;-74
2023/04/25 17:09:00;;;;;;;4.00;2.40;;;16.50;50.00;;;;;;4894152;29;20044;-75
2023/04/25 17:11:26;;;;;;;5.28;2.20;;;16.50;51.00;;;;;;4893679;29;20092;-75
2023/04/25 17:13:52;;;;;;;5.03;2.35;;;16.40;50.00;;;;;;4897236;29;20551;-75
2023/04/25 17:16:24;;;;;;;4.65;3.05;;;16.30;50.00;;;;;;4890627;29;20020;-76
2023/04/25 17:18:50;;;;;;;4.60;2.65;;;16.20;49.80;;;;;;4892872;29;20060;-77